Du har inga inställningar för hoppväder.nu

Hoppväder.nu

Senast uppdaterat 01:30

UTC-tid

2020-05-31 kl. 23:30


Sol och måne

Solen går upp 3:33 och går ner 23:04 (beräknade cirkatider)
Nästa fullmåne blir om 4 dagar (2020-06-05)

METAR

ESSA (Arlanda, Stockholm)
(1450 minuter sedan)
ESSA 312320Z 34006KT CAVOK 08/03 Q1029 NOSIG=



ESSD (Borlänge)
(1450 minuter sedan)
ESSD 312320Z AUTO 27004KT 270V010 9999 NCD 11/03 Q1030=



EFMA (Mariehamn)
(1450 minuter sedan)
EFMA 312320Z AUTO 36005KT CAVOK 09/05 Q1028=



ESOW (Västerås)
(1450 minuter sedan)
ESOW 312320Z AUTO 35003KT 9999 NCD 08/02 Q1029=






TAF

ESSA (Arlanda, Stockholm)
(1440 minuter sedan)
ESSA 312330Z 0100/0124 35005KT CAVOK=



ESSD (Borlänge)
ESSD



EFMA (Mariehamn)
(187 minuter sedan)
EFMA 312023Z 3121/0106 35007KT CAVOK=



ESOW (Västerås)
ESOW





Kodnycklar till TAF och METAR






LHP

(Gryttjom är område se34e i Delområde 1)

Prognos är inte uppdaterad






Preliminär prognos